createdAt,value
2023-03-13T00:01:51.810Z,22.11
2023-03-13T00:05:14.140Z,22.09
2023-03-13T00:08:36.325Z,22.08
2023-03-13T00:11:58.154Z,22.05
2023-03-13T00:15:19.838Z,22.04
2023-03-13T00:18:47.217Z,22.03
2023-03-13T00:22:08.997Z,22.03
2023-03-13T00:25:31.172Z,22.03
2023-03-13T00:28:53.659Z,22.04
2023-03-13T00:32:15.767Z,22.02
2023-03-13T00:35:37.811Z,22.02
2023-03-13T00:39:01.421Z,22.01
2023-03-13T00:42:23.179Z,22.00
2023-03-13T00:45:44.928Z,21.99
2023-03-13T00:49:07.059Z,22.00
2023-03-13T00:52:28.710Z,21.98
2023-03-13T00:55:53.530Z,21.99
2023-03-13T00:59:15.794Z,22.00
2023-03-13T01:02:42.491Z,22.00
2023-03-13T01:06:06.929Z,22.00
2023-03-13T01:09:28.665Z,22.01
2023-03-13T01:12:50.400Z,22.02
2023-03-13T01:16:18.627Z,22.03
2023-03-13T01:19:40.382Z,22.02
2023-03-13T01:23:03.511Z,22.03
2023-03-13T01:26:26.180Z,22.05
2023-03-13T01:29:48.777Z,22.04
2023-03-13T01:33:10.478Z,22.05
2023-03-13T01:36:32.344Z,22.05
2023-03-13T01:39:54.136Z,22.07
2023-03-13T01:43:27.928Z,22.06
2023-03-13T01:46:52.635Z,22.06
2023-03-13T01:50:20.291Z,22.07
2023-03-13T01:54:18.639Z,22.07
2023-03-13T01:57:43.344Z,22.06
2023-03-13T02:01:05.974Z,22.08
2023-03-13T02:04:31.505Z,22.05
2023-03-13T02:08:24.270Z,22.05
2023-03-13T02:12:05.181Z,22.08
2023-03-13T02:15:27.790Z,22.10
2023-03-13T02:18:49.665Z,22.10
2023-03-13T02:22:29.909Z,22.15
2023-03-13T02:25:53.551Z,22.20
2023-03-13T02:29:18.736Z,22.21
2023-03-13T02:32:41.184Z,22.23
2023-03-13T02:36:03.556Z,22.29
2023-03-13T02:39:26.052Z,22.30
2023-03-13T02:42:48.800Z,22.30
2023-03-13T02:46:17.525Z,22.28
2023-03-13T02:49:40.985Z,22.31
2023-03-13T02:53:05.890Z,22.31
2023-03-13T02:56:30.073Z,22.28
2023-03-13T02:59:51.931Z,22.29
2023-03-13T03:03:13.945Z,22.31
2023-03-13T03:06:35.621Z,22.33
2023-03-13T03:09:58.187Z,22.34
2023-03-13T03:13:19.891Z,22.34
2023-03-13T03:16:41.837Z,22.34
2023-03-13T03:20:07.964Z,22.35
2023-03-13T03:23:29.679Z,22.38
2023-03-13T03:26:51.433Z,22.40
2023-03-13T03:30:19.260Z,22.41
2023-03-13T03:33:42.116Z,22.42
2023-03-13T03:37:05.660Z,22.42
2023-03-13T03:40:28.231Z,22.44
2023-03-13T03:43:50.452Z,22.46
2023-03-13T03:47:14.841Z,22.47
2023-03-13T03:50:39.559Z,22.47
2023-03-13T03:54:01.400Z,22.49
2023-03-13T03:57:25.018Z,22.48
2023-03-13T04:00:47.802Z,22.49
2023-03-13T04:04:09.711Z,22.52
2023-03-13T04:07:33.415Z,22.56
2023-03-13T04:10:55.494Z,22.58
2023-03-13T04:14:18.643Z,22.62
2023-03-13T04:17:40.572Z,22.65
2023-03-13T04:21:06.028Z,22.66
2023-03-13T04:24:44.639Z,22.70
2023-03-13T04:28:06.361Z,22.72
2023-03-13T04:31:33.823Z,22.74
2023-03-13T04:35:11.270Z,22.77
2023-03-13T04:38:51.593Z,22.82
2023-03-13T04:42:32.269Z,22.85
2023-03-13T04:46:05.939Z,22.89
2023-03-13T04:49:53.636Z,22.94
2023-03-13T04:53:39.332Z,23.00
2023-03-13T04:57:13.847Z,23.04
2023-03-13T05:00:57.086Z,23.09
2023-03-13T05:04:36.830Z,23.14
2023-03-13T05:08:21.781Z,23.17
2023-03-13T05:11:58.274Z,23.22
2023-03-13T05:15:38.832Z,23.27
2023-03-13T05:19:26.867Z,23.30
2023-03-13T05:23:11.621Z,23.35
2023-03-13T05:26:56.087Z,23.37
2023-03-13T05:30:26.926Z,23.41
2023-03-13T05:34:07.448Z,23.46
2023-03-13T05:37:47.479Z,23.50
2023-03-13T05:41:44.656Z,23.55
2023-03-13T05:45:12.734Z,23.59
2023-03-13T05:48:58.414Z,23.64
2023-03-13T05:52:39.741Z,23.67
2023-03-13T05:56:01.624Z,23.69
2023-03-13T05:59:41.971Z,23.73
2023-03-13T06:03:22.395Z,23.79
2023-03-13T06:06:46.750Z,23.84
2023-03-13T06:10:11.185Z,23.87
2023-03-13T06:13:34.384Z,23.93
2023-03-13T06:17:02.812Z,23.97
2023-03-13T06:20:24.549Z,24.02
2023-03-13T06:23:48.992Z,24.08
2023-03-13T06:27:11.219Z,24.12
2023-03-13T06:30:32.931Z,24.16
2023-03-13T06:33:55.188Z,24.21
2023-03-13T06:37:16.900Z,24.25
2023-03-13T06:40:38.594Z,24.31
2023-03-13T06:44:00.291Z,24.34
2023-03-13T06:47:21.990Z,24.38
2023-03-13T06:50:44.114Z,24.40
2023-03-13T06:54:06.026Z,24.46
2023-03-13T06:57:27.882Z,24.49
2023-03-13T07:00:49.584Z,24.55
2023-03-13T07:04:13.047Z,24.58
2023-03-13T07:07:37.283Z,24.63
2023-03-13T07:11:01.213Z,24.66
2023-03-13T07:14:22.864Z,24.70
2023-03-13T07:17:44.721Z,24.72
2023-03-13T07:21:06.526Z,24.73
2023-03-13T07:24:28.252Z,24.76
2023-03-13T07:27:52.538Z,24.78
2023-03-13T07:31:22.027Z,24.80
2023-03-13T07:34:46.862Z,24.85
2023-03-13T07:38:08.538Z,24.87
2023-03-13T07:41:30.257Z,24.90
2023-03-13T07:44:53.341Z,24.92
2023-03-13T07:48:14.974Z,24.93
2023-03-13T07:51:43.661Z,24.91
2023-03-13T07:55:06.551Z,24.89
2023-03-13T07:58:32.412Z,24.91
2023-03-13T08:01:54.384Z,24.92
2023-03-13T08:05:16.195Z,24.92
2023-03-13T08:08:39.202Z,24.92
2023-03-13T08:12:00.857Z,24.94
2023-03-13T08:15:26.144Z,24.93
2023-03-13T08:18:50.496Z,24.89
2023-03-13T08:22:12.210Z,24.83
2023-03-13T08:25:33.942Z,24.80
2023-03-13T08:29:06.930Z,24.75
2023-03-13T08:32:28.943Z,24.73
2023-03-13T08:35:50.754Z,24.76
2023-03-13T08:39:14.591Z,24.78
2023-03-13T08:42:37.565Z,24.77
2023-03-13T08:45:59.340Z,24.79
2023-03-13T08:49:21.087Z,24.79
2023-03-13T08:52:44.790Z,24.78
2023-03-13T08:56:09.717Z,24.82
2023-03-13T08:59:31.463Z,24.83
2023-03-13T09:02:53.217Z,24.87
2023-03-13T09:06:15.061Z,24.96
2023-03-13T09:09:36.999Z,25.16
2023-03-13T09:12:58.827Z,25.07
2023-03-13T09:16:22.713Z,24.94
2023-03-13T09:19:59.181Z,24.91
2023-03-13T09:23:22.348Z,24.95
2023-03-13T09:26:58.557Z,24.96
2023-03-13T09:30:22.487Z,24.91
2023-03-13T09:33:45.234Z,24.82
2023-03-13T09:37:07.268Z,24.78
2023-03-13T09:40:29.073Z,24.81
2023-03-13T09:44:13.141Z,24.86
2023-03-13T09:47:51.023Z,24.91
2023-03-13T09:51:21.923Z,24.91
2023-03-13T09:54:59.746Z,25.04
2023-03-13T09:58:24.604Z,25.27
2023-03-13T10:01:47.835Z,25.53
2023-03-13T10:05:09.803Z,25.67
2023-03-13T10:08:33.819Z,25.84
2023-03-13T10:12:18.991Z,25.96
2023-03-13T10:15:56.139Z,26.09
2023-03-13T10:19:22.287Z,26.21
2023-03-13T10:22:46.387Z,26.35
2023-03-13T10:26:17.854Z,26.45
2023-03-13T10:29:40.147Z,26.57
2023-03-13T10:33:17.050Z,26.73
2023-03-13T10:36:50.135Z,26.86
2023-03-13T10:40:25.470Z,26.99
2023-03-13T10:43:52.800Z,27.24
2023-03-13T10:47:15.157Z,27.49
2023-03-13T10:50:37.146Z,27.70
2023-03-13T10:53:58.863Z,27.89
2023-03-13T10:57:36.452Z,28.08
2023-03-13T11:01:17.188Z,28.28
2023-03-13T11:04:39.289Z,28.48
2023-03-13T11:08:22.731Z,28.60
2023-03-13T11:12:10.470Z,28.60
2023-03-13T11:15:46.550Z,28.61
2023-03-13T11:19:29.961Z,28.71
2023-03-13T11:23:00.438Z,28.89
2023-03-13T11:27:05.136Z,28.74
2023-03-13T11:34:46.408Z,28.39
2023-03-13T11:38:22.238Z,28.27
2023-03-13T11:41:44.003Z,28.12
2023-03-13T11:45:14.423Z,27.96
2023-03-13T11:48:51.821Z,27.74
2023-03-13T11:52:24.768Z,27.48
2023-03-13T11:55:51.897Z,27.26
2023-03-13T11:59:22.250Z,27.17
2023-03-13T12:03:04.956Z,27.15
2023-03-13T12:06:31.883Z,27.23
2023-03-13T12:10:00.561Z,27.31
2023-03-13T12:13:35.951Z,27.43
2023-03-13T12:17:01.380Z,27.57
2023-03-13T12:20:27.491Z,27.65
2023-03-13T12:23:56.120Z,27.77
2023-03-13T12:27:51.903Z,27.87
2023-03-13T12:31:37.116Z,27.98
2023-03-13T12:35:20.438Z,28.08
2023-03-13T12:38:58.625Z,28.16
2023-03-13T12:42:40.096Z,28.25
2023-03-13T12:46:01.932Z,28.40
2023-03-13T12:49:32.603Z,28.51
2023-03-13T12:53:28.064Z,28.58
2023-03-13T12:56:56.025Z,28.72
2023-03-13T13:00:22.116Z,28.89
2023-03-13T13:03:57.514Z,29.07
2023-03-13T13:07:29.618Z,29.29
2023-03-13T13:10:51.326Z,29.52
2023-03-13T13:14:19.246Z,29.75
2023-03-13T13:18:14.761Z,30.03
2023-03-13T13:21:38.281Z,30.34
2023-03-13T13:25:06.195Z,30.58
2023-03-13T13:28:37.497Z,30.85
2023-03-13T13:32:01.629Z,31.13
2023-03-13T13:35:34.830Z,31.40
2023-03-13T13:38:59.343Z,31.66
2023-03-13T13:42:33.031Z,31.92
2023-03-13T13:46:16.350Z,32.26
2023-03-13T13:49:53.096Z,32.60
2023-03-13T13:53:31.542Z,32.92
2023-03-13T13:57:02.687Z,33.23
2023-03-13T14:00:29.733Z,33.50
2023-03-13T14:03:54.842Z,33.78
2023-03-13T14:07:32.970Z,33.93
2023-03-13T14:11:05.131Z,34.13
2023-03-13T14:14:26.910Z,34.34
2023-03-13T14:18:00.608Z,34.52
2023-03-13T14:21:25.072Z,34.65
2023-03-13T14:24:57.704Z,34.72
2023-03-13T14:28:25.481Z,34.77
2023-03-13T14:31:54.894Z,34.88
2023-03-13T14:35:22.045Z,34.96
2023-03-13T14:39:01.586Z,35.09
2023-03-13T14:42:23.503Z,35.21
2023-03-13T14:45:45.697Z,35.35
2023-03-13T14:49:14.990Z,35.48
2023-03-13T14:52:39.946Z,35.58
2023-03-13T14:56:19.168Z,35.76
2023-03-13T14:59:43.928Z,35.91
2023-03-13T15:03:19.073Z,36.06
2023-03-13T15:06:41.006Z,36.11
2023-03-13T15:10:17.444Z,36.11
2023-03-13T15:13:41.970Z,36.03
2023-03-13T15:17:04.476Z,35.97
2023-03-13T15:20:26.168Z,35.91
2023-03-13T15:23:59.184Z,35.88
2023-03-13T15:27:23.643Z,35.81
2023-03-13T15:30:47.397Z,35.77
2023-03-13T15:34:13.309Z,35.79
2023-03-13T15:37:37.116Z,35.84
2023-03-13T15:40:58.944Z,35.88
2023-03-13T15:44:20.670Z,35.89
2023-03-13T15:47:42.435Z,35.87
2023-03-13T15:54:40.274Z,35.99
2023-03-13T15:58:03.032Z,35.80
2023-03-13T16:01:25.107Z,35.42
2023-03-13T16:04:47.247Z,35.05
2023-03-13T16:08:36.803Z,34.68
2023-03-13T16:11:59.006Z,34.48
2023-03-13T16:15:21.451Z,34.24
2023-03-13T16:18:43.217Z,33.96
2023-03-13T16:22:05.091Z,33.67
2023-03-13T16:25:26.955Z,33.41
2023-03-13T16:28:49.285Z,33.19
2023-03-13T16:32:15.791Z,32.98
2023-03-13T16:35:38.600Z,32.80
2023-03-13T16:39:05.810Z,32.64
2023-03-13T16:42:27.576Z,32.49
2023-03-13T16:45:49.379Z,32.36
2023-03-13T16:49:14.937Z,32.26
2023-03-13T16:52:37.182Z,32.13
2023-03-13T16:55:59.332Z,32.05
2023-03-13T16:59:23.326Z,31.97
2023-03-13T17:02:45.814Z,31.89
2023-03-13T17:06:13.990Z,31.81
2023-03-13T17:09:35.802Z,31.78
2023-03-13T17:12:57.792Z,31.70
2023-03-13T17:16:25.041Z,31.65
2023-03-13T17:19:48.223Z,31.58
2023-03-13T17:23:10.307Z,31.54
2023-03-13T17:26:37.131Z,31.49
2023-03-13T17:29:59.133Z,31.43
2023-03-13T17:33:21.138Z,31.38
2023-03-13T17:36:43.669Z,31.34
2023-03-13T17:40:16.164Z,31.30
2023-03-13T17:43:40.808Z,31.23
2023-03-13T17:47:02.720Z,31.20
2023-03-13T17:50:27.338Z,31.15
2023-03-13T17:53:50.441Z,31.11
2023-03-13T17:57:15.999Z,31.06
2023-03-13T18:00:38.036Z,31.01
2023-03-13T18:04:00.751Z,30.96
2023-03-13T18:07:27.807Z,30.91
2023-03-13T18:10:49.654Z,30.88
2023-03-13T18:14:11.905Z,30.85
2023-03-13T18:17:33.813Z,30.80
2023-03-13T18:20:55.556Z,30.76
2023-03-13T18:24:18.054Z,30.71
2023-03-13T18:27:40.302Z,30.68
2023-03-13T18:31:02.238Z,30.63
2023-03-13T18:34:25.091Z,30.58
2023-03-13T18:37:47.882Z,30.54
2023-03-13T18:41:11.990Z,30.50
2023-03-13T18:44:34.231Z,30.46
2023-03-13T18:47:56.336Z,30.42
2023-03-13T18:51:19.637Z,30.39
2023-03-13T18:54:41.673Z,30.34
2023-03-13T18:58:03.452Z,30.31
2023-03-13T19:01:29.574Z,30.27
2023-03-13T19:04:52.033Z,30.23
2023-03-13T19:08:14.016Z,30.20
2023-03-13T19:11:35.848Z,30.15
2023-03-13T19:14:57.835Z,30.11
2023-03-13T19:18:19.662Z,30.05
2023-03-13T19:21:41.548Z,30.02
2023-03-13T19:25:04.115Z,29.97
2023-03-13T19:28:26.000Z,29.94
2023-03-13T19:31:47.831Z,29.90
2023-03-13T19:35:09.851Z,29.83
2023-03-13T19:38:31.632Z,29.82
2023-03-13T19:41:53.957Z,29.86
2023-03-13T19:45:20.533Z,29.88
2023-03-13T19:48:42.386Z,29.90
2023-03-13T19:52:04.264Z,29.90
2023-03-13T19:55:26.155Z,29.89
2023-03-13T19:58:50.015Z,29.90
2023-03-13T20:02:11.963Z,29.90
2023-03-13T20:05:33.814Z,29.86
2023-03-13T20:08:57.187Z,29.82
2023-03-13T20:12:19.261Z,29.79
2023-03-13T20:15:42.345Z,29.77
2023-03-13T20:19:04.781Z,29.74
2023-03-13T20:22:27.626Z,29.72
2023-03-13T20:25:49.486Z,29.67
2023-03-13T20:29:11.306Z,29.64
2023-03-13T20:32:33.367Z,29.62
2023-03-13T20:36:00.318Z,29.61
2023-03-13T20:39:24.012Z,29.59
2023-03-13T20:42:45.952Z,29.56
2023-03-13T20:46:10.402Z,29.57
2023-03-13T20:49:32.274Z,29.57
2023-03-13T20:52:55.588Z,29.56
2023-03-13T20:56:18.014Z,29.57
2023-03-13T20:59:41.298Z,29.56
2023-03-13T21:03:03.015Z,29.52
2023-03-13T21:06:24.725Z,29.46
2023-03-13T21:09:46.371Z,29.42
2023-03-13T21:13:09.478Z,29.39
2023-03-13T21:16:31.726Z,29.35
2023-03-13T21:19:53.668Z,29.34
2023-03-13T21:23:16.286Z,29.32
2023-03-13T21:26:38.053Z,29.34
2023-03-13T21:30:00.544Z,29.36
2023-03-13T21:33:22.444Z,29.36
2023-03-13T21:36:44.113Z,29.39
2023-03-13T21:40:06.772Z,29.38
2023-03-13T21:43:29.202Z,29.38
2023-03-13T21:46:51.810Z,29.37
2023-03-13T21:50:13.931Z,29.37
2023-03-13T21:53:36.315Z,29.38
2023-03-13T21:56:58.277Z,29.34
2023-03-13T22:00:20.284Z,29.35
2023-03-13T22:03:42.723Z,29.33
2023-03-13T22:07:04.995Z,29.29
2023-03-13T22:10:26.716Z,29.22
2023-03-13T22:13:48.418Z,29.15
2023-03-13T22:17:16.818Z,29.09
2023-03-13T22:20:38.552Z,29.04
2023-03-13T22:24:00.239Z,28.99
2023-03-13T22:27:24.157Z,28.97
2023-03-13T22:30:46.132Z,28.95
2023-03-13T22:34:08.534Z,28.95
2023-03-13T22:37:30.652Z,28.94
2023-03-13T22:41:04.754Z,28.95
2023-03-13T22:44:26.627Z,28.95
2023-03-13T22:47:48.535Z,28.93
2023-03-13T22:51:12.665Z,28.93
2023-03-13T22:54:34.473Z,28.85
2023-03-13T22:57:56.205Z,28.82
2023-03-13T23:01:19.085Z,28.78
2023-03-13T23:04:40.773Z,28.77
2023-03-13T23:08:03.038Z,28.75
2023-03-13T23:11:24.804Z,28.75
2023-03-13T23:14:47.155Z,28.74
2023-03-13T23:18:09.328Z,28.69
2023-03-13T23:21:31.049Z,28.63
2023-03-13T23:24:54.072Z,28.60
2023-03-13T23:28:19.497Z,28.55
2023-03-13T23:31:41.242Z,28.50
2023-03-13T23:35:03.557Z,28.45
2023-03-13T23:38:25.444Z,28.40
2023-03-13T23:41:47.393Z,28.33
2023-03-13T23:45:09.415Z,28.27
2023-03-13T23:48:31.613Z,28.22
2023-03-13T23:51:53.263Z,28.19
2023-03-13T23:55:15.808Z,28.18
2023-03-13T23:58:37.687Z,28.19
